Time;durP1;ratioP1;P1;durP2;ratioP2;P2;SDS_P1;SDS_P2;PMS_P1;PMS_P2;Temp;Humidity;BMP_temperature;BMP_pressure;BME280_temperature;BME280_humidity;BME280_pressure;Samples;Min_cycle;Max_cycle;Signal;HPM_P1;HPM_P2
2022/11/30 00:00:10;;;;;;;47.92;20.13;;;7.60;99.90;;;;;;4920925;29;20394;-82
2022/11/30 00:02:36;;;;;;;43.20;18.52;;;7.60;99.90;;;;;;4921919;28;20036;-82
2022/11/30 00:05:01;;;;;;;85.35;27.50;;;7.60;99.90;;;;;;4936913;29;20098;-82
2022/11/30 00:07:27;;;;;;;57.80;22.35;;;7.60;99.90;;;;;;4935010;29;20036;-82
2022/11/30 00:09:52;;;;;;;84.78;24.40;;;7.60;99.90;;;;;;4937968;29;20119;-82
2022/11/30 00:12:19;;;;;;;42.83;18.02;;;7.60;99.90;;;;;;4919077;29;20024;-83
2022/11/30 00:14:44;;;;;;;68.80;22.33;;;7.60;99.90;;;;;;4921047;29;20484;-82
2022/11/30 00:17:10;;;;;;;44.28;20.30;;;7.60;99.90;;;;;;4937007;29;20027;-82
2022/11/30 00:19:35;;;;;;;47.15;19.77;;;7.60;99.90;;;;;;4937032;28;20046;-83
2022/11/30 00:22:01;;;;;;;45.75;20.23;;;7.60;99.90;;;;;;4920287;29;20424;-83
2022/11/30 00:24:26;;;;;;;49.22;20.38;;;7.60;99.90;;;;;;4935534;29;20037;-82
2022/11/30 00:26:52;;;;;;;45.83;18.88;;;7.60;99.90;;;;;;4920772;28;20043;-83
2022/11/30 00:29:25;;;;;;;66.57;22.60;;;7.60;99.90;;;;;;4934497;29;20050;-83
2022/11/30 00:31:51;;;;;;;44.78;19.35;;;7.60;99.90;;;;;;4936831;29;20061;-83
2022/11/30 00:34:16;;;;;;;42.15;19.38;;;7.60;99.90;;;;;;4950214;28;20384;-82
2022/11/30 00:36:42;;;;;;;54.08;22.75;;;7.60;99.90;;;;;;4931551;29;20033;-84
2022/11/30 00:39:08;;;;;;;71.75;22.58;;;7.60;99.90;;;;;;4950576;28;20031;-83
2022/11/30 00:41:33;;;;;;;43.67;18.80;;;7.60;99.90;;;;;;4923782;29;20438;-82
2022/11/30 00:43:59;;;;;;;59.85;23.33;;;7.60;99.90;;;;;;4918632;28;20498;-82
2022/11/30 00:46:25;;;;;;;60.65;23.13;;;7.60;99.90;;;;;;4919186;29;20035;-83
2022/11/30 00:48:51;;;;;;;67.15;21.63;;;7.60;99.90;;;;;;4918626;29;20048;-82
2022/11/30 00:51:17;;;;;;;43.63;17.98;;;7.60;99.90;;;;;;4916700;29;20034;-82
2022/11/30 00:53:43;;;;;;;47.53;20.60;;;7.60;99.90;;;;;;4920816;28;20082;-83
2022/11/30 00:56:09;;;;;;;48.25;19.55;;;7.60;99.90;;;;;;4920401;29;20039;-83
2022/11/30 00:58:34;;;;;;;52.92;20.17;;;7.60;99.90;;;;;;4919846;29;20036;-83
2022/11/30 01:01:00;;;;;;;44.53;19.48;;;7.60;99.90;;;;;;4952118;28;20390;-82
2022/11/30 01:03:26;;;;;;;41.25;18.17;;;7.70;99.90;;;;;;4918336;29;20488;-83
2022/11/30 01:05:51;;;;;;;45.80;19.75;;;7.70;99.90;;;;;;4922559;28;20057;-82
2022/11/30 01:08:17;;;;;;;36.72;16.58;;;7.70;99.90;;;;;;4933846;29;20031;-82
2022/11/30 01:10:43;;;;;;;39.25;17.85;;;7.60;99.90;;;;;;4934649;28;20032;-81
2022/11/30 01:13:09;;;;;;;35.92;17.50;;;7.70;99.90;;;;;;4901998;29;20032;-81
2022/11/30 01:15:36;;;;;;;47.67;21.25;;;7.60;99.90;;;;;;4918001;29;20031;-82
2022/11/30 01:18:02;;;;;;;39.17;17.45;;;7.60;99.90;;;;;;4934822;28;20035;-83
2022/11/30 01:20:27;;;;;;;36.17;18.05;;;7.70;99.90;;;;;;4919692;29;20559;-82
2022/11/30 01:22:54;;;;;;;46.70;19.38;;;7.70;99.90;;;;;;4935242;29;20034;-82
2022/11/30 01:25:20;;;;;;;35.85;16.48;;;7.60;99.90;;;;;;4918287;29;20066;-82
2022/11/30 01:27:48;;;;;;;31.58;14.98;;;7.60;99.90;;;;;;4917333;29;20039;-83
2022/11/30 01:30:13;;;;;;;35.75;15.02;;;7.60;99.90;;;;;;4936255;29;20027;-83
2022/11/30 01:32:39;;;;;;;37.28;17.75;;;7.60;99.90;;;;;;4918705;29;20392;-82
2022/11/30 01:35:05;;;;;;;35.33;15.73;;;7.60;99.90;;;;;;4936371;28;20031;-83
2022/11/30 01:37:30;;;;;;;28.92;13.80;;;7.60;99.90;;;;;;4932488;29;20046;-82
2022/11/30 01:39:56;;;;;;;30.02;15.18;;;7.60;99.90;;;;;;4913138;28;20051;-82
2022/11/30 01:42:21;;;;;;;33.92;15.90;;;7.60;99.90;;;;;;4950701;28;20043;-83
2022/11/30 01:44:54;;;;;;;31.55;14.80;;;7.60;99.90;;;;;;4921860;28;20113;-82
2022/11/30 01:47:25;;;;;;;28.20;14.82;;;7.60;99.90;;;;;;4933073;28;20492;-82
2022/11/30 01:50:07;;;;;;;26.08;13.20;;;7.60;99.90;;;;;;4919940;29;20113;-83
2022/11/30 01:52:40;;;;;;;31.90;15.93;;;7.60;99.90;;;;;;4937728;29;20043;-82
2022/11/30 01:55:07;;;;;;;28.30;15.10;;;7.60;99.90;;;;;;4920037;29;20114;-82
2022/11/30 01:58:11;;;;;;;26.92;12.13;;;7.60;99.90;;;;;;4932038;28;20495;-82
2022/11/30 02:00:38;;;;;;;33.20;16.55;;;7.60;99.90;;;;;;4929805;29;20028;-82
2022/11/30 02:03:17;;;;;;;30.85;14.05;;;7.60;99.90;;;;;;4917876;29;20568;-82
2022/11/30 02:05:42;;;;;;;28.35;13.35;;;7.60;99.90;;;;;;4945619;28;20449;-82
2022/11/30 02:08:09;;;;;;;25.05;13.02;;;7.60;99.90;;;;;;4916208;29;20067;-82
2022/11/30 02:10:37;;;;;;;42.65;17.23;;;7.60;99.90;;;;;;4918155;29;20047;-82
2022/11/30 02:13:11;;;;;;;41.72;18.25;;;7.60;99.90;;;;;;4916201;28;20041;-83
2022/11/30 02:16:14;;;;;;;35.38;16.17;;;7.60;99.90;;;;;;4936529;28;20038;-82
2022/11/30 02:18:39;;;;;;;54.08;18.27;;;7.60;99.90;;;;;;4932701;29;20397;-83
2022/11/30 02:21:13;;;;;;;52.65;20.13;;;7.60;99.90;;;;;;4949411;28;20042;-83
2022/11/30 02:23:53;;;;;;;48.20;21.33;;;7.60;99.90;;;;;;4936962;29;20097;-82
2022/11/30 02:26:19;;;;;;;63.35;28.88;;;7.50;99.90;;;;;;4947415;28;20039;-83
2022/11/30 02:28:47;;;;;;;77.05;35.05;;;7.50;99.90;;;;;;4933015;29;20087;-83
2022/11/30 02:31:24;;;;;;;61.65;26.83;;;7.40;99.90;;;;;;4934493;29;20559;-82
2022/11/30 02:33:49;;;;;;;58.47;28.25;;;7.40;99.90;;;;;;4918023;28;20503;-82
2022/11/30 02:36:15;;;;;;;68.40;32.00;;;7.30;99.90;;;;;;4918413;29;20110;-82
2022/11/30 02:38:40;;;;;;;68.28;31.15;;;7.30;99.90;;;;;;4935368;29;20118;-83
2022/11/30 02:41:06;;;;;;;72.30;31.05;;;7.20;99.90;;;;;;4918445;29;20036;-82
2022/11/30 02:43:31;;;;;;;66.82;30.58;;;7.20;99.90;;;;;;4916855;29;20047;-82
2022/11/30 02:46:26;;;;;;;60.63;29.38;;;7.20;99.90;;;;;;4933161;28;20032;-82
2022/11/30 02:49:10;;;;;;;62.05;28.90;;;7.20;99.90;;;;;;4935188;29;20054;-82
2022/11/30 02:51:35;;;;;;;68.55;30.90;;;7.20;99.90;;;;;;4925874;28;20031;-82
2022/11/30 02:54:01;;;;;;;63.97;31.30;;;7.20;99.90;;;;;;4899306;29;20039;-82
2022/11/30 02:56:27;;;;;;;65.45;29.50;;;7.10;99.90;;;;;;4927126;29;20036;-82
2022/11/30 02:58:52;;;;;;;60.42;29.48;;;7.10;99.90;;;;;;4916355;29;20039;-82
2022/11/30 03:01:18;;;;;;;70.65;31.52;;;7.00;99.90;;;;;;4933151;28;20034;-82
2022/11/30 03:03:43;;;;;;;60.30;29.85;;;7.00;99.90;;;;;;4916615;28;20108;-82
2022/11/30 03:06:09;;;;;;;65.63;30.42;;;7.00;99.90;;;;;;4931568;28;20063;-82
2022/11/30 03:08:35;;;;;;;67.57;32.60;;;7.00;99.90;;;;;;4913768;29;20491;-82
2022/11/30 03:11:03;;;;;;;58.92;29.30;;;7.00;99.90;;;;;;4915695;29;20419;-83
2022/11/30 03:13:30;;;;;;;57.38;27.95;;;6.90;99.90;;;;;;4931387;29;20043;-83
2022/11/30 03:15:56;;;;;;;52.40;27.92;;;6.90;99.90;;;;;;4912889;29;20036;-83
2022/11/30 03:18:27;;;;;;;51.63;27.15;;;6.90;99.90;;;;;;4943364;28;20044;-83
2022/11/30 03:20:53;;;;;;;55.72;26.95;;;6.90;99.90;;;;;;4935305;29;20114;-82
2022/11/30 03:23:18;;;;;;;56.35;30.50;;;6.80;99.90;;;;;;4936853;29;20124;-82
2022/11/30 03:25:44;;;;;;;56.70;27.95;;;6.80;99.90;;;;;;4918046;29;20048;-83
2022/11/30 03:28:09;;;;;;;55.83;26.23;;;6.80;99.90;;;;;;4931507;29;20424;-82
2022/11/30 03:30:35;;;;;;;55.13;25.02;;;6.80;99.90;;;;;;4919392;28;20043;-82
2022/11/30 03:33:00;;;;;;;58.95;29.08;;;6.80;99.90;;;;;;4931134;28;20049;-81
2022/11/30 03:35:27;;;;;;;65.13;35.45;;;6.80;99.90;;;;;;4935284;28;20895;-82
2022/11/30 03:37:53;;;;;;;60.05;30.88;;;6.70;99.90;;;;;;4915105;29;20031;-82
2022/11/30 03:40:18;;;;;;;61.08;33.05;;;6.70;99.90;;;;;;4934375;28;20448;-83
2022/11/30 03:42:44;;;;;;;60.42;29.33;;;6.70;99.90;;;;;;4943797;28;20036;-82
2022/11/30 03:45:10;;;;;;;71.13;33.35;;;6.70;99.90;;;;;;4916042;29;20051;-82
2022/11/30 03:47:36;;;;;;;60.05;29.77;;;6.60;99.90;;;;;;4916742;29;20055;-82
2022/11/30 03:50:11;;;;;;;59.97;31.77;;;6.60;99.90;;;;;;4931915;29;20487;-83
2022/11/30 03:52:37;;;;;;;57.95;29.77;;;6.60;99.90;;;;;;4915514;29;20068;-83
2022/11/30 03:55:02;;;;;;;54.42;27.33;;;6.60;99.90;;;;;;4902729;28;20474;-83
2022/11/30 03:57:28;;;;;;;54.50;27.73;;;6.50;99.90;;;;;;4914223;29;20119;-82
2022/11/30 03:59:53;;;;;;;52.17;25.90;;;6.50;99.90;;;;;;4918987;29;20031;-82
2022/11/30 04:02:19;;;;;;;51.10;25.25;;;6.50;99.90;;;;;;4950262;28;20059;-82
2022/11/30 04:04:45;;;;;;;58.70;27.45;;;6.50;99.90;;;;;;4936303;29;20043;-82
2022/11/30 04:07:20;;;;;;;53.45;26.90;;;6.50;99.90;;;;;;4949941;28;20039;-83
2022/11/30 04:09:45;;;;;;;54.28;24.73;;;6.50;99.90;;;;;;4916315;29;20081;-82
2022/11/30 04:12:11;;;;;;;61.22;26.35;;;6.50;99.90;;;;;;4900033;29;20028;-82
2022/11/30 04:14:37;;;;;;;48.38;26.98;;;6.50;99.90;;;;;;4898886;29;20051;-81
2022/11/30 04:17:02;;;;;;;54.17;27.13;;;6.50;99.90;;;;;;4932341;29;20035;-82
2022/11/30 04:19:28;;;;;;;53.35;26.02;;;6.40;99.90;;;;;;4931763;29;20039;-82
2022/11/30 04:21:53;;;;;;;47.63;24.02;;;6.50;99.90;;;;;;4900751;29;20031;-82
2022/11/30 04:24:19;;;;;;;50.60;24.45;;;6.50;99.90;;;;;;4933911;29;20043;-83
2022/11/30 04:26:44;;;;;;;51.17;26.08;;;6.50;99.90;;;;;;4916043;29;20087;-82
2022/11/30 04:29:10;;;;;;;54.45;26.85;;;6.40;99.90;;;;;;4932445;29;20431;-82
2022/11/30 04:31:36;;;;;;;52.85;25.25;;;6.40;99.90;;;;;;4916367;29;20500;-83
2022/11/30 04:34:01;;;;;;;53.95;27.88;;;6.40;99.90;;;;;;4917131;29;21056;-82
2022/11/30 04:36:27;;;;;;;54.75;25.88;;;6.40;99.90;;;;;;4910001;29;20028;-83
2022/11/30 04:38:52;;;;;;;49.88;25.92;;;6.40;99.90;;;;;;4921541;29;20163;-83
2022/11/30 04:41:18;;;;;;;48.10;24.52;;;6.40;99.90;;;;;;4918928;29;20085;-83
2022/11/30 04:43:49;;;;;;;47.50;25.45;;;6.40;99.90;;;;;;4920038;29;20544;-82
2022/11/30 04:46:15;;;;;;;48.33;25.85;;;6.40;99.90;;;;;;4898795;29;20054;-83
2022/11/30 04:48:40;;;;;;;51.65;26.58;;;6.40;99.90;;;;;;4902910;29;20067;-83
2022/11/30 04:51:07;;;;;;;46.85;24.02;;;6.30;99.90;;;;;;4922506;28;20059;-82
2022/11/30 04:53:33;;;;;;;50.50;26.70;;;6.30;99.90;;;;;;4919826;28;20074;-82
2022/11/30 04:55:58;;;;;;;52.60;24.63;;;6.30;99.90;;;;;;4920276;29;20520;-82
2022/11/30 04:58:30;;;;;;;41.88;21.40;;;6.40;99.90;;;;;;4919682;29;20062;-82
2022/11/30 05:00:56;;;;;;;47.78;24.17;;;6.40;99.90;;;;;;4953566;28;20899;-82
2022/11/30 05:03:22;;;;;;;48.58;24.95;;;6.40;99.90;;;;;;4898652;29;20984;-82
2022/11/30 05:05:47;;;;;;;52.03;24.73;;;6.40;99.90;;;;;;4905034;28;20115;-83
2022/11/30 05:08:13;;;;;;;46.00;25.10;;;6.40;99.90;;;;;;4932878;29;20123;-83
2022/11/30 05:10:39;;;;;;;44.58;23.40;;;6.30;99.90;;;;;;4917968;29;20043;-82
2022/11/30 05:13:06;;;;;;;45.42;23.92;;;6.40;99.90;;;;;;4930138;29;20035;-82
2022/11/30 05:15:32;;;;;;;46.92;23.75;;;6.40;99.90;;;;;;4916172;29;20400;-83
2022/11/30 05:17:59;;;;;;;32.70;18.00;;;6.30;99.90;;;;;;4921286;29;20036;-82
2022/11/30 05:20:24;;;;;;;28.30;16.08;;;6.40;99.90;;;;;;4902335;29;20036;-83
2022/11/30 05:22:50;;;;;;;46.00;23.83;;;6.40;99.90;;;;;;4951136;28;20368;-82
2022/11/30 05:25:15;;;;;;;27.90;15.07;;;6.40;99.90;;;;;;4914620;29;20536;-83
2022/11/30 05:27:41;;;;;;;43.13;22.30;;;6.40;99.90;;;;;;4951014;28;20118;-83
2022/11/30 05:30:07;;;;;;;46.08;23.60;;;6.40;99.90;;;;;;4935218;28;20035;-82
2022/11/30 05:32:35;;;;;;;44.80;23.95;;;6.40;99.90;;;;;;4936786;29;20027;-83
2022/11/30 05:35:00;;;;;;;47.67;24.65;;;6.40;99.90;;;;;;4917348;29;20036;-83
2022/11/30 05:37:26;;;;;;;38.97;21.63;;;6.30;99.90;;;;;;4928339;29;20040;-83
2022/11/30 05:39:51;;;;;;;43.03;22.88;;;6.40;99.90;;;;;;4933092;29;20138;-84
2022/11/30 05:42:17;;;;;;;50.83;25.00;;;6.40;99.90;;;;;;4916178;28;20467;-83
2022/11/30 05:44:43;;;;;;;37.53;20.58;;;6.40;99.90;;;;;;4935389;29;20496;-83
2022/11/30 05:47:09;;;;;;;43.38;21.30;;;6.40;99.90;;;;;;4907195;28;20031;-82
2022/11/30 05:49:36;;;;;;;41.08;21.92;;;6.40;99.90;;;;;;4909945;29;20044;-82
2022/11/30 05:52:01;;;;;;;26.85;15.20;;;6.40;99.90;;;;;;4936276;28;20021;-83
2022/11/30 05:54:29;;;;;;;45.63;22.02;;;6.40;99.90;;;;;;4920086;29;20032;-83
2022/11/30 05:56:54;;;;;;;47.08;24.50;;;6.40;99.90;;;;;;4933293;29;20123;-83
2022/11/30 05:59:20;;;;;;;44.10;22.52;;;6.40;99.90;;;;;;4919275;29;20110;-83
2022/11/30 06:01:45;;;;;;;42.25;22.70;;;6.40;99.90;;;;;;4919355;29;20126;-82
2022/11/30 06:04:11;;;;;;;45.38;23.05;;;6.40;99.90;;;;;;4930636;29;20027;-80
2022/11/30 06:06:36;;;;;;;41.90;22.92;;;6.30;99.90;;;;;;4931152;29;20035;-81
2022/11/30 06:09:02;;;;;;;43.22;22.60;;;6.30;99.90;;;;;;4934264;29;20091;-81
2022/11/30 06:11:28;;;;;;;43.97;21.67;;;6.30;99.90;;;;;;4914602;29;20066;-81
2022/11/30 06:13:53;;;;;;;42.38;21.30;;;6.30;99.90;;;;;;4928299;29;20459;-81
2022/11/30 06:16:19;;;;;;;45.05;23.60;;;6.30;99.90;;;;;;4916959;28;21528;-81
2022/11/30 06:18:44;;;;;;;45.75;22.58;;;6.40;99.90;;;;;;4917989;29;20027;-80
2022/11/30 06:21:10;;;;;;;42.05;23.52;;;6.30;99.90;;;;;;4917978;29;20075;-81
2022/11/30 06:23:36;;;;;;;43.88;23.63;;;6.30;99.90;;;;;;4913582;29;20042;-81
2022/11/30 06:26:03;;;;;;;46.42;24.50;;;6.30;99.90;;;;;;4917897;29;20059;-81
2022/11/30 06:28:29;;;;;;;48.60;26.98;;;6.30;99.90;;;;;;4917197;29;20044;-81
2022/11/30 06:31:00;;;;;;;46.80;24.70;;;6.30;99.90;;;;;;4932421;29;20144;-81
2022/11/30 06:33:26;;;;;;;46.70;24.90;;;6.30;99.90;;;;;;4915782;29;20059;-81
2022/11/30 06:35:51;;;;;;;52.30;26.88;;;6.30;99.90;;;;;;4933115;29;20070;-81
2022/11/30 06:38:17;;;;;;;51.65;26.50;;;6.30;99.90;;;;;;4917035;29;20039;-81
2022/11/30 06:40:43;;;;;;;50.15;26.83;;;6.30;99.90;;;;;;4917289;29;20043;-82
2022/11/30 06:43:09;;;;;;;54.35;27.67;;;6.30;99.90;;;;;;4950294;28;20039;-81
2022/11/30 06:45:34;;;;;;;48.28;26.38;;;6.30;99.90;;;;;;4916134;28;20028;-81
2022/11/30 06:48:00;;;;;;;59.28;29.25;;;6.30;99.90;;;;;;4934908;29;20032;-81
2022/11/30 06:50:26;;;;;;;51.83;28.33;;;6.30;99.90;;;;;;4913764;29;20031;-80
2022/11/30 06:52:52;;;;;;;52.20;25.60;;;6.30;99.90;;;;;;4936466;29;20031;-81
2022/11/30 06:55:18;;;;;;;55.80;26.92;;;6.30;99.90;;;;;;4935543;28;20364;-81
2022/11/30 06:57:43;;;;;;;49.38;25.77;;;6.30;99.90;;;;;;4933000;29;20067;-80
2022/11/30 07:00:11;;;;;;;48.35;23.85;;;6.30;99.90;;;;;;4935308;28;20563;-80
2022/11/30 07:02:37;;;;;;;53.03;28.40;;;6.30;99.90;;;;;;4916010;28;20096;-80
2022/11/30 07:05:02;;;;;;;54.40;30.50;;;6.30;99.90;;;;;;4913610;29;20067;-80
2022/11/30 07:07:29;;;;;;;50.05;26.98;;;6.30;99.90;;;;;;4914300;29;20035;-80
2022/11/30 07:09:55;;;;;;;49.60;28.90;;;6.30;99.90;;;;;;4915321;29;20040;-80
2022/11/30 07:12:35;;;;;;;52.20;28.35;;;6.30;99.90;;;;;;4890176;29;20373;-80
2022/11/30 07:15:01;;;;;;;53.90;28.92;;;6.20;99.90;;;;;;4916064;29;20465;-80
2022/11/30 07:17:26;;;;;;;60.53;29.15;;;6.30;99.90;;;;;;4929750;28;20098;-80
2022/11/30 07:19:52;;;;;;;58.53;31.65;;;6.30;99.90;;;;;;4951054;28;20040;-80
2022/11/30 07:22:19;;;;;;;53.10;28.65;;;6.30;99.90;;;;;;4917936;29;20063;-80
2022/11/30 07:27:29;;;;;;;54.00;30.40;;;6.30;99.90;;;;;;4946642;28;20404;-80
2022/11/30 07:29:56;;;;;;;56.05;27.73;;;6.30;99.90;;;;;;4930568;29;20032;-80
2022/11/30 07:32:22;;;;;;;55.45;30.20;;;6.30;99.90;;;;;;4918767;29;20039;-80
2022/11/30 07:34:47;;;;;;;59.10;29.70;;;6.30;99.90;;;;;;4918243;28;20049;-80
2022/11/30 07:37:13;;;;;;;53.75;31.02;;;6.30;99.90;;;;;;4899844;29;20024;-80
2022/11/30 07:39:39;;;;;;;55.97;29.42;;;6.30;99.90;;;;;;4929744;28;20038;-80
2022/11/30 07:42:04;;;;;;;57.17;28.70;;;6.30;99.90;;;;;;4913924;29;20031;-80
2022/11/30 07:44:30;;;;;;;62.47;31.73;;;6.30;99.90;;;;;;4913537;29;20031;-80
2022/11/30 07:46:55;;;;;;;60.83;30.05;;;6.30;99.90;;;;;;4929336;29;20039;-80
2022/11/30 07:49:21;;;;;;;53.90;27.60;;;6.30;99.90;;;;;;4913533;29;20028;-80
2022/11/30 07:51:47;;;;;;;50.20;27.33;;;6.30;99.90;;;;;;4934597;29;20027;-80
2022/11/30 07:54:12;;;;;;;53.22;28.60;;;6.30;99.90;;;;;;4916412;29;20127;-79
2022/11/30 07:56:38;;;;;;;61.22;30.33;;;6.30;99.90;;;;;;4915334;28;20111;-80
2022/11/30 07:59:03;;;;;;;55.85;29.88;;;6.30;99.90;;;;;;4916919;29;20094;-80
2022/11/30 08:01:30;;;;;;;55.28;28.45;;;6.30;99.90;;;;;;4915670;28;20091;-80
2022/11/30 08:03:56;;;;;;;57.88;31.10;;;6.30;99.90;;;;;;4933961;28;20091;-80
2022/11/30 08:06:23;;;;;;;58.15;30.85;;;6.30;99.90;;;;;;4912868;29;20035;-80
2022/11/30 08:08:49;;;;;;;61.25;30.85;;;6.30;99.90;;;;;;4918017;28;20070;-80
2022/11/30 08:11:17;;;;;;;53.72;28.23;;;6.30;99.90;;;;;;4932541;28;20054;-80
2022/11/30 08:13:42;;;;;;;55.03;28.92;;;6.40;99.90;;;;;;4907319;28;20031;-80
2022/11/30 08:16:12;;;;;;;54.83;28.92;;;6.40;99.90;;;;;;4898286;28;20058;-79
2022/11/30 08:18:39;;;;;;;59.25;28.45;;;6.40;99.90;;;;;;4929225;29;20035;-81
2022/11/30 08:21:05;;;;;;;50.38;26.88;;;6.40;99.90;;;;;;4933436;29;20043;-81
2022/11/30 08:23:35;;;;;;;57.08;29.88;;;6.40;99.90;;;;;;4918361;29;20040;-80
2022/11/30 08:26:02;;;;;;;61.00;29.48;;;6.40;99.90;;;;;;4949062;28;20031;-80
2022/11/30 08:28:29;;;;;;;58.17;31.35;;;6.50;99.90;;;;;;4945963;28;20384;-81
2022/11/30 08:30:59;;;;;;;56.15;29.88;;;6.40;99.90;;;;;;4949057;28;20067;-81
2022/11/30 08:33:24;;;;;;;56.97;30.02;;;6.40;99.90;;;;;;4932925;29;20036;-80
2022/11/30 08:35:50;;;;;;;60.45;31.92;;;6.40;99.90;;;;;;4917705;28;20361;-81
2022/11/30 08:38:15;;;;;;;57.60;29.45;;;6.40;99.90;;;;;;4931046;29;20071;-81
2022/11/30 08:40:41;;;;;;;56.08;28.65;;;6.50;99.90;;;;;;4919553;29;20047;-81
2022/11/30 08:43:06;;;;;;;60.67;30.13;;;6.50;99.90;;;;;;4919038;29;20028;-81
2022/11/30 08:45:33;;;;;;;63.78;31.42;;;6.50;99.90;;;;;;4898630;29;20036;-81
2022/11/30 08:47:59;;;;;;;57.75;30.17;;;6.50;99.90;;;;;;4920110;29;20035;-81
2022/11/30 08:50:24;;;;;;;64.20;31.85;;;6.50;99.90;;;;;;4930995;28;20035;-80
2022/11/30 08:52:53;;;;;;;57.75;31.52;;;6.50;99.90;;;;;;4918487;28;20039;-81
2022/11/30 08:55:18;;;;;;;59.17;31.25;;;6.50;99.90;;;;;;4918286;29;20055;-80
2022/11/30 08:57:44;;;;;;;59.35;30.70;;;6.50;99.90;;;;;;4923226;29;20473;-81
2022/11/30 09:00:11;;;;;;;59.72;30.77;;;6.50;99.90;;;;;;4930934;29;20114;-81
2022/11/30 09:02:37;;;;;;;59.97;29.17;;;6.50;99.90;;;;;;4933863;29;20420;-81
2022/11/30 09:05:03;;;;;;;59.33;30.73;;;6.50;99.90;;;;;;4917163;29;20039;-80
2022/11/30 09:07:28;;;;;;;60.47;29.65;;;6.50;99.90;;;;;;4917504;29;20036;-81
2022/11/30 09:09:54;;;;;;;65.18;30.65;;;6.60;99.90;;;;;;4932056;28;20109;-81
2022/11/30 09:12:20;;;;;;;56.78;28.70;;;6.60;99.90;;;;;;4920450;29;20413;-80
2022/11/30 09:14:46;;;;;;;61.20;31.15;;;6.60;99.90;;;;;;4951777;28;20060;-79
2022/11/30 09:17:12;;;;;;;57.78;30.67;;;6.60;99.90;;;;;;4948640;28;20485;-78
2022/11/30 09:19:38;;;;;;;52.70;30.58;;;6.50;99.90;;;;;;4917670;29;20116;-79
2022/11/30 09:22:03;;;;;;;60.25;30.85;;;6.60;99.90;;;;;;4950535;28;20042;-80
2022/11/30 09:24:29;;;;;;;61.67;31.88;;;6.60;99.90;;;;;;4918034;29;20452;-80
2022/11/30 09:26:55;;;;;;;59.67;31.52;;;6.50;99.90;;;;;;4934765;28;20488;-80
2022/11/30 09:29:21;;;;;;;62.95;30.55;;;6.60;99.90;;;;;;4901268;29;20055;-80
2022/11/30 09:31:48;;;;;;;59.80;30.00;;;6.60;99.90;;;;;;4916754;29;20028;-80
2022/11/30 09:34:16;;;;;;;61.67;31.85;;;6.60;99.90;;;;;;4952477;28;20623;-81
2022/11/30 09:36:42;;;;;;;64.72;35.85;;;6.60;99.90;;;;;;4914558;29;20028;-80
2022/11/30 09:39:09;;;;;;;61.72;32.38;;;6.60;99.90;;;;;;4920102;28;20028;-81
2022/11/30 09:42:02;;;;;;;64.88;32.75;;;6.50;99.90;;;;;;4919255;29;20051;-81
2022/11/30 09:44:35;;;;;;;64.85;33.08;;;6.60;99.90;;;;;;4916178;29;20067;-80
2022/11/30 09:47:20;;;;;;;69.38;32.78;;;6.60;99.90;;;;;;4945820;28;20036;-81
2022/11/30 09:49:47;;;;;;;68.32;32.45;;;6.60;99.90;;;;;;4920255;29;20111;-81
2022/11/30 09:52:16;;;;;;;53.58;28.45;;;6.60;99.90;;;;;;4915423;29;20028;-80
2022/11/30 09:54:42;;;;;;;59.53;31.08;;;6.60;99.90;;;;;;4922671;29;20111;-80
2022/11/30 09:57:35;;;;;;;70.68;33.53;;;6.70;99.90;;;;;;4951092;28;20081;-81
2022/11/30 10:00:13;;;;;;;75.22;39.30;;;6.70;99.90;;;;;;4948235;28;20119;-80
2022/11/30 10:02:39;;;;;;;79.65;41.38;;;6.60;99.90;;;;;;4913051;29;20031;-80
2022/11/30 10:05:11;;;;;;;83.80;36.10;;;6.60;99.90;;;;;;4916211;29;20385;-80
2022/11/30 10:07:46;;;;;;;80.40;38.45;;;6.60;99.90;;;;;;4936989;28;20093;-80
2022/11/30 10:10:52;;;;;;;76.03;35.38;;;6.60;99.90;;;;;;4931110;29;20539;-80
2022/11/30 10:13:29;;;;;;;72.10;35.25;;;6.60;99.90;;;;;;4932179;28;20039;-80
2022/11/30 10:16:17;;;;;;;78.90;36.53;;;6.60;99.90;;;;;;4918735;29;20500;-80
2022/11/30 10:19:14;;;;;;;80.50;38.83;;;6.60;99.90;;;;;;4930278;29;20111;-80
2022/11/30 10:21:46;;;;;;;87.55;41.45;;;6.60;99.90;;;;;;4933482;29;20145;-80
2022/11/30 10:24:18;;;;;;;115.95;37.03;;;6.60;99.90;;;;;;4932669;28;20121;-80
2022/11/30 10:26:54;;;;;;;72.18;35.05;;;6.60;99.90;;;;;;4935081;28;20038;-80
2022/11/30 10:29:28;;;;;;;72.35;38.70;;;6.60;99.90;;;;;;4930548;29;20086;-80
2022/11/30 10:31:57;;;;;;;79.53;38.30;;;6.60;99.90;;;;;;4951009;28;20411;-80
2022/11/30 10:34:25;;;;;;;76.97;38.15;;;6.60;99.90;;;;;;4895934;29;20562;-80
2022/11/30 10:37:26;;;;;;;73.55;37.53;;;6.60;99.90;;;;;;4931565;28;20055;-80
2022/11/30 10:39:56;;;;;;;74.47;38.78;;;6.60;99.90;;;;;;4943515;28;20360;-80
2022/11/30 10:42:25;;;;;;;81.10;36.90;;;6.60;99.90;;;;;;4911588;29;20601;-80
2022/11/30 10:45:11;;;;;;;76.45;35.40;;;6.60;99.90;;;;;;4929295;29;20051;-80
2022/11/30 10:47:49;;;;;;;82.22;37.80;;;6.70;99.90;;;;;;4909642;29;20945;-80
2022/11/30 10:50:15;;;;;;;73.85;33.08;;;6.70;99.90;;;;;;4916217;29;20074;-80
2022/11/30 10:52:46;;;;;;;72.57;32.83;;;6.70;99.90;;;;;;4914800;29;20127;-80
2022/11/30 10:55:17;;;;;;;72.38;34.55;;;6.70;99.90;;;;;;4911562;29;20058;-80
2022/11/30 10:57:42;;;;;;;69.78;34.83;;;6.80;99.90;;;;;;4914140;29;20147;-80
2022/11/30 11:00:12;;;;;;;73.55;33.70;;;6.80;99.90;;;;;;4926148;29;20144;-80
2022/11/30 11:02:45;;;;;;;73.07;34.25;;;6.80;99.90;;;;;;4914457;29;20039;-78
2022/11/30 11:05:27;;;;;;;68.07;31.38;;;6.80;99.90;;;;;;4937043;28;20504;-80
2022/11/30 11:07:56;;;;;;;69.60;34.42;;;6.80;99.90;;;;;;4914841;28;20114;-80
2022/11/30 11:10:32;;;;;;;66.45;33.65;;;6.80;99.90;;;;;;4932416;28;20508;-80
2022/11/30 11:12:57;;;;;;;75.68;36.08;;;6.80;99.90;;;;;;4935277;29;20103;-80
2022/11/30 11:15:28;;;;;;;71.10;33.63;;;6.80;99.90;;;;;;4933786;28;20055;-80
2022/11/30 11:18:14;;;;;;;69.07;32.28;;;6.90;99.90;;;;;;4916476;28;20031;-80
2022/11/30 11:20:43;;;;;;;58.20;26.35;;;6.90;99.90;;;;;;4928284;29;20740;-80
2022/11/30 11:23:25;;;;;;;67.20;32.65;;;6.90;99.90;;;;;;4912509;29;20036;-80
2022/11/30 11:26:01;;;;;;;71.65;34.88;;;6.90;99.90;;;;;;4919813;29;20551;-80
2022/11/30 11:28:27;;;;;;;;;;;7.00;99.90;;;;;;4903720;29;20038;-80
2022/11/30 11:30:54;;;;;;;72.50;32.67;;;7.00;99.90;;;;;;4933242;29;19914;-80
2022/11/30 11:33:27;;;;;;;68.82;37.13;;;7.00;99.90;;;;;;4915652;29;20376;-80
2022/11/30 11:35:54;;;;;;;66.88;35.88;;;7.00;99.90;;;;;;4917432;29;20060;-80
2022/11/30 11:38:29;;;;;;;66.85;33.80;;;7.00;99.90;;;;;;4916104;28;20099;-80
2022/11/30 11:40:57;;;;;;;62.55;37.92;;;7.10;99.90;;;;;;4926600;29;20035;-80
2022/11/30 11:43:24;;;;;;;64.40;31.30;;;7.10;99.90;;;;;;4936711;28;20059;-80
2022/11/30 11:45:51;;;;;;;64.72;33.08;;;7.10;99.90;;;;;;4919293;29;20600;-80
2022/11/30 11:48:30;;;;;;;62.83;32.70;;;7.20;99.90;;;;;;4933963;29;20043;-80
2022/11/30 11:51:00;;;;;;;62.63;34.75;;;7.20;99.90;;;;;;4933868;29;20524;-80
2022/11/30 11:53:52;;;;;;;58.28;32.95;;;7.20;99.90;;;;;;4917710;29;20044;-80
2022/11/30 11:56:35;;;;;;;55.75;29.00;;;7.20;99.90;;;;;;4930300;29;20503;-80
2022/11/30 11:59:00;;;;;;;53.50;30.35;;;7.30;99.90;;;;;;4914705;29;20036;-80
2022/11/30 12:01:58;;;;;;;55.22;31.20;;;7.30;99.90;;;;;;4932966;29;20495;-78
2022/11/30 12:04:44;;;;;;;57.15;29.55;;;7.30;99.90;;;;;;4933306;29;20039;-78
2022/11/30 12:07:37;;;;;;;53.65;30.00;;;7.30;99.90;;;;;;4934246;29;20495;-78
2022/11/30 12:10:21;;;;;;;56.50;30.92;;;7.40;99.90;;;;;;4926804;29;20052;-78
2022/11/30 12:12:47;;;;;;;49.17;27.95;;;7.40;99.90;;;;;;4949127;28;20043;-77
2022/11/30 12:15:12;;;;;;;54.05;28.65;;;7.40;99.90;;;;;;4933021;29;20027;-77
2022/11/30 12:17:41;;;;;;;50.67;28.17;;;7.40;99.90;;;;;;4917880;29;20043;-78
2022/11/30 12:20:55;;;;;;;56.92;29.15;;;7.40;99.90;;;;;;4934655;29;20038;-81
2022/11/30 12:23:33;;;;;;;49.92;28.77;;;7.40;99.90;;;;;;4937536;29;20512;-78
2022/11/30 12:25:58;;;;;;;50.92;28.17;;;7.40;99.90;;;;;;4947656;28;20032;-80
2022/11/30 12:29:02;;;;;;;48.65;26.42;;;7.40;99.90;;;;;;4935856;28;20415;-78
2022/11/30 12:32:00;;;;;;;49.35;28.27;;;7.40;99.90;;;;;;4879108;29;20171;-81
2022/11/30 12:34:32;;;;;;;52.08;28.80;;;7.40;99.90;;;;;;4927627;29;20036;-78
2022/11/30 12:37:09;;;;;;;50.97;28.35;;;7.40;99.90;;;;;;4950781;28;20031;-78
2022/11/30 12:39:39;;;;;;;49.95;29.02;;;7.40;99.90;;;;;;4932887;29;20484;-78
2022/11/30 12:42:16;;;;;;;44.90;28.75;;;7.40;99.90;;;;;;4934718;28;20695;-78
2022/11/30 12:44:59;;;;;;;51.20;31.08;;;7.40;99.90;;;;;;4916327;29;20046;-78
2022/11/30 12:47:37;;;;;;;43.92;27.08;;;7.40;99.90;;;;;;4936928;29;20039;-78
2022/11/30 12:50:07;;;;;;;43.47;25.27;;;7.30;99.90;;;;;;4952527;28;20114;-81